createdAt,value
2019-04-25T00:01:56.327Z,1.63
2019-04-25T00:04:25.928Z,2.13
2019-04-25T00:06:54.359Z,1.90
2019-04-25T00:09:23.544Z,1.87
2019-04-25T00:11:52.430Z,1.97
2019-04-25T00:14:22.587Z,2.70
2019-04-25T00:16:52.312Z,2.70
2019-04-25T00:19:21.884Z,2.83
2019-04-25T00:22:11.767Z,2.73
2019-04-25T00:24:48.164Z,2.80
2019-04-25T00:27:16.662Z,1.90
2019-04-25T00:29:45.807Z,2.40
2019-04-25T00:32:14.477Z,2.80
2019-04-25T00:34:44.245Z,3.63
2019-04-25T00:37:13.950Z,4.40
2019-04-25T00:39:44.744Z,4.33
2019-04-25T00:42:12.572Z,4.70
2019-04-25T00:44:43.450Z,4.33
2019-04-25T00:47:11.732Z,4.53
2019-04-25T00:49:42.096Z,4.50
2019-04-25T00:52:11.628Z,4.70
2019-04-25T00:54:41.418Z,4.60
2019-04-25T00:57:12.138Z,4.50
2019-04-25T00:59:45.490Z,6.10
2019-04-25T01:02:24.665Z,5.83
2019-04-25T01:04:54.125Z,4.93
2019-04-25T01:07:22.584Z,6.33
2019-04-25T01:09:52.468Z,6.90
2019-04-25T01:12:21.695Z,7.23
2019-04-25T01:14:50.990Z,8.20
2019-04-25T01:17:21.229Z,7.53
2019-04-25T01:19:50.998Z,7.50
2019-04-25T01:22:19.462Z,7.83
2019-04-25T01:24:47.842Z,8.87
2019-04-25T01:27:16.236Z,7.27
2019-04-25T01:29:44.650Z,9.50
2019-04-25T01:32:14.604Z,7.33
2019-04-25T01:35:00.486Z,8.03
2019-04-25T01:37:48.956Z,6.93
2019-04-25T01:40:35.379Z,7.30
2019-04-25T01:43:05.571Z,6.70
2019-04-25T01:45:35.639Z,7.07
2019-04-25T01:48:04.287Z,7.33
2019-04-25T01:50:33.201Z,6.37
2019-04-25T01:53:03.394Z,7.27
2019-04-25T01:55:33.595Z,5.33
2019-04-25T01:58:03.757Z,5.93
2019-04-25T02:00:33.874Z,6.07
2019-04-25T02:03:04.479Z,5.60
2019-04-25T02:05:33.781Z,5.93
2019-04-25T02:08:04.388Z,7.23
2019-04-25T02:10:34.445Z,5.60
2019-04-25T02:13:04.478Z,6.03
2019-04-25T02:15:33.535Z,5.80
2019-04-25T02:18:03.805Z,5.00
2019-04-25T02:20:33.964Z,6.87
2019-04-25T02:23:04.160Z,6.30
2019-04-25T02:25:33.267Z,5.33
2019-04-25T02:28:03.141Z,5.27
2019-04-25T02:30:31.735Z,6.07
2019-04-25T02:33:02.760Z,5.90
2019-04-25T02:35:30.684Z,6.13
2019-04-25T02:38:01.301Z,5.97
2019-04-25T02:40:29.066Z,5.87
2019-04-25T02:43:00.131Z,6.40
2019-04-25T02:45:38.533Z,5.30
2019-04-25T02:48:17.748Z,5.70
2019-04-25T02:50:55.445Z,6.37
2019-04-25T02:53:25.352Z,5.30
2019-04-25T02:55:53.947Z,5.37
2019-04-25T02:58:24.192Z,5.60
2019-04-25T03:01:03.331Z,5.47
2019-04-25T03:03:24.549Z,5.23
2019-04-25T03:05:54.864Z,5.07
2019-04-25T03:08:24.484Z,5.27
2019-04-25T03:10:54.281Z,5.20
2019-04-25T03:13:24.664Z,5.53
2019-04-25T03:15:55.418Z,6.00
2019-04-25T03:18:24.952Z,4.90
2019-04-25T03:21:01.221Z,4.80
2019-04-25T03:23:35.352Z,4.87
2019-04-25T03:26:05.829Z,5.10
2019-04-25T03:28:34.444Z,4.53
2019-04-25T03:31:08.567Z,4.47
2019-04-25T03:33:37.890Z,4.57
2019-04-25T03:36:05.538Z,4.80
2019-04-25T03:38:34.680Z,5.27
2019-04-25T03:41:04.815Z,4.33
2019-04-25T03:43:33.363Z,5.20
2019-04-25T03:46:02.497Z,4.40
2019-04-25T03:48:31.780Z,5.13
2019-04-25T03:51:02.249Z,4.67
2019-04-25T03:53:30.847Z,3.70
2019-04-25T03:55:59.140Z,4.33
2019-04-25T03:58:27.476Z,4.20
2019-04-25T04:00:55.865Z,4.00
2019-04-25T04:03:24.232Z,4.33
2019-04-25T04:05:54.026Z,3.77
2019-04-25T04:08:24.191Z,3.77
2019-04-25T04:10:54.236Z,4.30
2019-04-25T04:13:24.338Z,3.30
2019-04-25T04:15:53.272Z,4.10
2019-04-25T04:18:26.900Z,3.00
2019-04-25T04:20:55.897Z,3.40
2019-04-25T04:23:33.204Z,3.10
2019-04-25T04:26:03.280Z,2.80
2019-04-25T04:28:33.642Z,3.10
2019-04-25T04:31:03.699Z,2.10
2019-04-25T04:33:34.483Z,2.60
2019-04-25T04:36:03.899Z,2.50
2019-04-25T04:38:32.397Z,2.00
2019-04-25T04:41:03.867Z,2.53
2019-04-25T04:43:34.122Z,2.03
2019-04-25T04:46:03.938Z,1.73
2019-04-25T04:48:34.109Z,2.73
2019-04-25T04:51:03.447Z,2.20
2019-04-25T04:53:33.878Z,2.27
2019-04-25T04:56:04.154Z,2.10
2019-04-25T04:58:34.205Z,2.00
2019-04-25T05:01:03.705Z,2.10
2019-04-25T05:03:44.061Z,2.10
2019-04-25T05:06:20.199Z,2.10
2019-04-25T05:08:53.245Z,2.37
2019-04-25T05:11:23.899Z,2.00
2019-04-25T05:13:54.045Z,1.53
2019-04-25T05:16:23.825Z,2.10
2019-04-25T05:18:53.603Z,2.57
2019-04-25T05:21:22.575Z,2.30
2019-04-25T05:23:50.966Z,2.10
2019-04-25T05:26:19.286Z,1.87
2019-04-25T05:28:47.844Z,1.90
2019-04-25T05:31:26.871Z,2.10
2019-04-25T05:33:55.280Z,2.40
2019-04-25T05:36:25.259Z,1.70
2019-04-25T05:38:53.959Z,2.20
2019-04-25T05:41:33.742Z,1.63
2019-04-25T05:44:04.485Z,1.87
2019-04-25T05:46:34.158Z,1.90
2019-04-25T05:49:03.483Z,1.27
2019-04-25T05:51:33.753Z,1.50
2019-04-25T05:54:04.073Z,1.67
2019-04-25T05:56:33.783Z,2.07
2019-04-25T05:59:03.358Z,1.90
2019-04-25T06:01:35.585Z,1.70
2019-04-25T06:04:05.410Z,1.70
2019-04-25T06:06:36.671Z,1.20
2019-04-25T06:09:07.075Z,1.73
2019-04-25T06:11:53.370Z,1.60
2019-04-25T06:14:23.668Z,1.40
2019-04-25T06:16:53.695Z,1.57
2019-04-25T06:19:41.390Z,1.83
2019-04-25T06:22:11.317Z,1.13
2019-04-25T06:24:47.060Z,1.43
2019-04-25T06:27:17.050Z,1.33
2019-04-25T06:29:57.695Z,1.87
2019-04-25T06:32:16.986Z,1.33
2019-04-25T06:34:45.434Z,1.50
2019-04-25T06:37:13.984Z,1.23
2019-04-25T06:39:44.112Z,1.03
2019-04-25T06:42:13.728Z,1.40
2019-04-25T06:44:43.869Z,2.20
2019-04-25T06:47:20.239Z,1.30
2019-04-25T06:49:49.354Z,1.40
2019-04-25T06:52:17.689Z,1.00
2019-04-25T06:54:45.973Z,1.27
2019-04-25T06:57:14.295Z,1.17
2019-04-25T06:59:43.736Z,1.47
2019-04-25T07:02:13.855Z,1.20
2019-04-25T07:04:43.515Z,1.40
2019-04-25T07:07:14.665Z,0.97
2019-04-25T07:09:43.386Z,1.13
2019-04-25T07:12:13.412Z,1.33
2019-04-25T07:14:43.868Z,1.40
2019-04-25T07:17:11.890Z,1.10
2019-04-25T07:19:40.313Z,1.10
2019-04-25T07:22:08.593Z,1.30
2019-04-25T07:24:36.877Z,0.83
2019-04-25T07:27:23.620Z,0.97
2019-04-25T07:29:56.752Z,1.33
2019-04-25T07:32:30.851Z,1.07
2019-04-25T07:34:59.641Z,0.97
2019-04-25T07:37:29.808Z,1.20
2019-04-25T07:39:58.251Z,1.27
2019-04-25T07:42:27.621Z,1.60
2019-04-25T07:44:56.068Z,1.03
2019-04-25T07:47:24.407Z,1.90
2019-04-25T07:49:54.134Z,1.07
2019-04-25T07:52:23.373Z,1.10
2019-04-25T07:54:51.952Z,1.10
2019-04-25T07:57:20.263Z,0.83
2019-04-25T07:59:48.672Z,1.10
2019-04-25T08:02:16.964Z,1.13
2019-04-25T08:04:45.259Z,0.90
2019-04-25T08:07:14.281Z,1.20
2019-04-25T08:09:44.141Z,1.00
2019-04-25T08:12:13.351Z,1.40
2019-04-25T08:14:43.778Z,1.23
2019-04-25T08:17:14.956Z,1.60
2019-04-25T08:19:44.271Z,1.33
2019-04-25T08:22:13.637Z,1.00
2019-04-25T08:24:43.870Z,1.20
2019-04-25T08:27:13.325Z,1.70
2019-04-25T08:29:41.798Z,1.50
2019-04-25T08:32:10.133Z,1.67
2019-04-25T08:34:38.651Z,1.23
2019-04-25T08:37:17.585Z,1.40
2019-04-25T08:39:38.753Z,1.00
2019-04-25T08:42:07.761Z,1.50
2019-04-25T08:44:36.931Z,1.93
2019-04-25T08:47:05.387Z,1.10
2019-04-25T08:49:36.250Z,0.90
2019-04-25T08:52:04.698Z,1.63
2019-04-25T08:54:40.862Z,1.20
2019-04-25T08:57:08.762Z,1.50
2019-04-25T08:59:46.020Z,1.23
2019-04-25T09:02:13.643Z,1.40
2019-04-25T09:04:58.656Z,1.23
2019-04-25T09:07:27.133Z,1.27
2019-04-25T09:09:55.409Z,1.50
2019-04-25T09:12:24.059Z,1.60
2019-04-25T09:14:54.073Z,1.30
2019-04-25T09:17:24.289Z,1.63
2019-04-25T09:19:54.250Z,1.50
2019-04-25T09:22:24.256Z,1.53
2019-04-25T09:24:54.013Z,1.23
2019-04-25T09:27:23.533Z,1.63
2019-04-25T09:29:52.071Z,1.10
2019-04-25T09:32:20.364Z,1.60
2019-04-25T09:34:50.161Z,1.63
2019-04-25T09:37:18.529Z,1.27
2019-04-25T09:39:48.606Z,1.73
2019-04-25T09:42:16.886Z,1.50
2019-04-25T09:45:03.816Z,1.90
2019-04-25T09:47:33.532Z,1.20
2019-04-25T09:50:04.190Z,1.03
2019-04-25T09:52:34.025Z,1.63
2019-04-25T09:55:09.909Z,1.63
2019-04-25T09:57:43.372Z,1.60
2019-04-25T10:00:19.985Z,1.70
2019-04-25T10:02:48.279Z,1.80
2019-04-25T10:05:19.388Z,1.30
2019-04-25T10:07:50.345Z,2.27
2019-04-25T10:10:18.745Z,1.60
2019-04-25T10:12:47.457Z,1.67
2019-04-25T10:15:40.217Z,1.40
2019-04-25T10:18:08.503Z,1.37
2019-04-25T10:20:37.641Z,1.60
2019-04-25T10:23:06.162Z,1.57
2019-04-25T10:25:34.815Z,1.40
2019-04-25T10:28:04.354Z,1.13
2019-04-25T10:30:34.287Z,1.40
2019-04-25T10:33:04.065Z,1.30
2019-04-25T10:35:40.894Z,1.60
2019-04-25T10:38:03.542Z,1.60
2019-04-25T10:40:33.681Z,1.50
2019-04-25T10:43:03.907Z,1.50
2019-04-25T10:45:32.046Z,1.60
2019-04-25T10:48:00.322Z,1.27
2019-04-25T10:50:28.639Z,1.57
2019-04-25T10:52:57.165Z,1.20
2019-04-25T10:55:25.506Z,1.30
2019-04-25T10:57:54.953Z,1.07
2019-04-25T11:00:25.410Z,1.37
2019-04-25T11:02:55.164Z,1.63
2019-04-25T11:05:23.967Z,1.43
2019-04-25T11:07:55.698Z,1.43
2019-04-25T11:10:23.690Z,1.60
2019-04-25T11:12:53.611Z,0.93
2019-04-25T11:15:23.397Z,2.07
2019-04-25T11:17:54.129Z,1.60
2019-04-25T11:20:27.256Z,1.53
2019-04-25T11:22:55.705Z,1.50
2019-04-25T11:25:24.936Z,2.17
2019-04-25T11:27:54.160Z,1.10
2019-04-25T11:30:24.932Z,1.23
2019-04-25T11:32:54.599Z,1.50
2019-04-25T11:35:24.176Z,1.20
2019-04-25T11:37:54.889Z,1.20
2019-04-25T11:40:40.337Z,1.30
2019-04-25T11:43:08.670Z,1.57
2019-04-25T11:45:37.078Z,1.33
2019-04-25T11:48:05.431Z,1.10
2019-04-25T11:50:33.780Z,1.60
2019-04-25T11:53:03.375Z,1.13
2019-04-25T11:55:32.289Z,1.33
2019-04-25T11:58:00.638Z,1.70
2019-04-25T12:00:31.102Z,1.40
2019-04-25T12:02:59.381Z,1.40
2019-04-25T12:05:28.133Z,1.33
2019-04-25T12:07:56.442Z,1.50
2019-04-25T12:10:25.992Z,1.57
2019-04-25T12:12:54.362Z,0.90
2019-04-25T12:15:24.096Z,1.30
2019-04-25T12:17:52.504Z,1.17
2019-04-25T12:20:21.021Z,1.33
2019-04-25T12:22:50.394Z,1.63
2019-04-25T12:25:19.591Z,1.13
2019-04-25T12:27:51.283Z,1.60
2019-04-25T12:30:19.770Z,1.17
2019-04-25T12:32:48.037Z,1.10
2019-04-25T12:35:16.437Z,1.50
2019-04-25T12:37:44.718Z,2.30
2019-04-25T12:40:14.095Z,1.33
2019-04-25T12:42:44.376Z,5.07
2019-04-25T12:45:26.345Z,1.10
2019-04-25T12:47:58.856Z,0.87
2019-04-25T12:50:26.537Z,0.70
2019-04-25T12:52:56.015Z,1.07
2019-04-25T12:55:24.382Z,0.90
2019-04-25T12:57:53.640Z,2.00
2019-04-25T13:00:24.398Z,2.03
2019-04-25T13:02:53.913Z,0.90
2019-04-25T13:05:24.319Z,1.43
2019-04-25T13:07:56.697Z,1.43
2019-04-25T13:10:23.589Z,1.20
2019-04-25T13:12:55.212Z,1.27
2019-04-25T13:15:23.534Z,1.20
2019-04-25T13:17:53.620Z,1.73
2019-04-25T13:20:22.044Z,1.77
2019-04-25T13:22:50.325Z,1.47
2019-04-25T13:25:44.589Z,2.20
2019-04-25T13:28:23.237Z,1.30
2019-04-25T13:31:01.490Z,1.77
2019-04-25T13:33:33.507Z,1.30
2019-04-25T13:36:04.084Z,1.00
2019-04-25T13:38:32.691Z,1.17
2019-04-25T13:41:01.592Z,2.03
2019-04-25T13:43:30.086Z,0.90
2019-04-25T13:45:58.361Z,0.90
2019-04-25T13:48:27.799Z,1.23
2019-04-25T13:50:56.508Z,1.00
2019-04-25T13:53:25.668Z,1.00
2019-04-25T13:55:54.158Z,0.80
2019-04-25T13:58:24.237Z,3.23
2019-04-25T14:00:53.133Z,0.70
2019-04-25T14:03:21.806Z,0.93
2019-04-25T14:05:50.799Z,1.07
2019-04-25T14:08:20.884Z,1.03
2019-04-25T14:10:49.598Z,0.90
2019-04-25T14:13:25.111Z,0.73
2019-04-25T14:16:03.582Z,6.30
2019-04-25T14:18:50.112Z,0.70
2019-04-25T14:21:20.803Z,0.63
2019-04-25T14:23:50.236Z,0.83
2019-04-25T14:26:18.703Z,6.40
2019-04-25T14:28:47.085Z,2.20
2019-04-25T14:31:30.391Z,2.63
2019-04-25T14:33:51.592Z,4.63
2019-04-25T14:36:19.504Z,3.17
2019-04-25T14:38:47.812Z,0.60
2019-04-25T14:41:16.166Z,4.23
2019-04-25T14:43:46.408Z,1.00
2019-04-25T14:46:14.636Z,0.70
2019-04-25T14:48:42.950Z,1.57
2019-04-25T14:51:11.249Z,2.07
2019-04-25T14:53:39.696Z,0.63
2019-04-25T14:56:12.309Z,0.70
2019-04-25T14:58:42.365Z,3.17
2019-04-25T15:01:12.142Z,1.20
2019-04-25T15:03:40.453Z,2.90
2019-04-25T15:06:09.365Z,0.70
2019-04-25T15:08:37.658Z,2.37
2019-04-25T15:11:06.164Z,4.80
2019-04-25T15:13:35.256Z,4.17
2019-04-25T15:16:04.949Z,2.17
2019-04-25T15:18:45.846Z,2.23
2019-04-25T15:21:03.523Z,1.60
2019-04-25T15:23:32.105Z,1.13
2019-04-25T15:26:00.426Z,1.27
2019-04-25T15:28:29.721Z,1.43
2019-04-25T15:30:58.318Z,1.10
2019-04-25T15:33:26.708Z,1.00
2019-04-25T15:35:56.631Z,0.40
2019-04-25T15:38:29.209Z,0.80
2019-04-25T15:41:10.917Z,0.40
2019-04-25T15:43:40.855Z,0.60
2019-04-25T15:46:13.885Z,0.90
2019-04-25T15:48:42.234Z,0.50
2019-04-25T15:51:10.658Z,0.47
2019-04-25T15:53:38.944Z,0.50
2019-04-25T15:56:07.230Z,0.67
2019-04-25T15:58:35.650Z,0.60
2019-04-25T16:01:05.252Z,0.50
2019-04-25T16:03:33.564Z,0.40
2019-04-25T16:06:01.902Z,0.50
2019-04-25T16:08:30.920Z,0.50
2019-04-25T16:10:59.447Z,0.50
2019-04-25T16:13:28.708Z,0.60
2019-04-25T16:15:57.797Z,1.00
2019-04-25T16:18:27.175Z,0.50
2019-04-25T16:20:55.696Z,0.80
2019-04-25T16:23:24.053Z,1.07
2019-04-25T16:25:52.456Z,0.70
2019-04-25T16:28:20.804Z,0.77
2019-04-25T16:30:50.062Z,0.50
2019-04-25T16:33:18.372Z,0.90
2019-04-25T16:35:46.857Z,0.40
2019-04-25T16:38:15.570Z,0.63
2019-04-25T16:40:43.852Z,0.80
2019-04-25T16:43:13.805Z,0.50
2019-04-25T16:45:42.268Z,0.60
2019-04-25T16:48:10.601Z,0.50
2019-04-25T16:50:39.960Z,0.50
2019-04-25T16:53:08.382Z,0.50
2019-04-25T16:55:36.766Z,1.80
2019-04-25T16:58:05.299Z,0.50
2019-04-25T17:00:36.176Z,0.63
2019-04-25T17:03:04.759Z,0.70
2019-04-25T17:05:33.300Z,0.80
2019-04-25T17:08:01.586Z,0.77
2019-04-25T17:10:30.297Z,0.80
2019-04-25T17:12:59.625Z,0.60
2019-04-25T17:15:46.103Z,0.47
2019-04-25T17:18:25.078Z,0.77
2019-04-25T17:21:07.041Z,0.80
2019-04-25T17:23:37.013Z,1.03
2019-04-25T17:26:06.400Z,0.90
2019-04-25T17:28:36.996Z,0.90
2019-04-25T17:31:09.060Z,0.80
2019-04-25T17:33:46.801Z,0.57
2019-04-25T17:36:36.039Z,0.70
2019-04-25T17:39:22.994Z,0.73
2019-04-25T17:41:54.271Z,0.60
2019-04-25T17:44:22.566Z,0.60
2019-04-25T17:46:50.876Z,0.80
2019-04-25T17:49:19.205Z,1.27
2019-04-25T17:51:47.831Z,0.80
2019-04-25T17:54:18.437Z,0.60
2019-04-25T17:56:46.948Z,0.60
2019-04-25T17:59:15.265Z,2.90
2019-04-25T18:01:44.303Z,1.20
2019-04-25T18:04:12.775Z,1.00
2019-04-25T18:06:42.090Z,1.07
2019-04-25T18:09:10.517Z,1.53
2019-04-25T18:11:38.848Z,1.00
2019-04-25T18:14:07.122Z,1.90
2019-04-25T18:16:42.299Z,0.80
2019-04-25T18:19:12.518Z,1.33
2019-04-25T18:21:40.848Z,0.50
2019-04-25T18:24:16.649Z,0.93
2019-04-25T18:26:50.212Z,0.97
2019-04-25T18:29:20.962Z,1.07
2019-04-25T18:31:50.231Z,0.73
2019-04-25T18:34:22.861Z,0.90
2019-04-25T18:36:55.372Z,0.83
2019-04-25T18:39:34.061Z,0.83
2019-04-25T18:42:08.070Z,0.87
2019-04-25T18:44:36.650Z,0.63
2019-04-25T18:47:04.977Z,1.33
2019-04-25T18:49:33.385Z,0.93
2019-04-25T18:52:03.591Z,0.90
2019-04-25T18:54:51.686Z,1.03
2019-04-25T18:57:21.617Z,0.77
2019-04-25T18:59:54.557Z,0.60
2019-04-25T19:02:42.529Z,1.00
2019-04-25T19:05:18.096Z,0.70
2019-04-25T19:07:47.371Z,0.60
2019-04-25T19:10:15.795Z,1.23
2019-04-25T19:12:45.143Z,1.13
2019-04-25T19:15:13.481Z,1.03
2019-04-25T19:17:43.302Z,1.10
2019-04-25T19:20:11.828Z,0.77
2019-04-25T19:22:41.495Z,0.83
2019-04-25T19:25:10.805Z,2.47
2019-04-25T19:27:39.708Z,4.80
2019-04-25T19:30:10.714Z,5.50
2019-04-25T19:32:39.056Z,5.20
2019-04-25T19:35:07.372Z,4.33
2019-04-25T19:37:35.742Z,3.50
2019-04-25T19:40:05.896Z,3.00
2019-04-25T19:42:45.326Z,3.00
2019-04-25T19:45:13.688Z,1.93
2019-04-25T19:47:42.918Z,2.23
2019-04-25T19:50:11.242Z,1.50
2019-04-25T19:52:39.568Z,1.13
2019-04-25T19:55:08.338Z,1.13
2019-04-25T19:57:36.716Z,1.40
2019-04-25T20:00:06.385Z,1.20
2019-04-25T20:02:36.654Z,1.07
2019-04-25T20:05:11.029Z,0.90
2019-04-25T20:07:53.465Z,1.80
2019-04-25T20:10:26.235Z,0.90
2019-04-25T20:12:55.158Z,1.17
2019-04-25T20:15:23.439Z,0.87
2019-04-25T20:17:52.059Z,0.90
2019-04-25T20:20:20.410Z,1.20
2019-04-25T20:22:48.803Z,0.80
2019-04-25T20:25:17.148Z,0.73
2019-04-25T20:27:46.643Z,1.30
2019-04-25T20:30:15.114Z,1.27
2019-04-25T20:32:43.406Z,1.27
2019-04-25T20:35:11.734Z,1.07
2019-04-25T20:37:40.144Z,0.93
2019-04-25T20:40:08.598Z,0.57
2019-04-25T20:42:36.879Z,0.83
2019-04-25T20:45:07.520Z,0.83
2019-04-25T20:47:35.818Z,0.57
2019-04-25T20:50:05.558Z,0.70
2019-04-25T20:52:38.175Z,0.60
2019-04-25T20:55:07.652Z,1.17
2019-04-25T20:57:36.013Z,0.70
2019-04-25T21:00:08.912Z,0.50
2019-04-25T21:02:37.392Z,0.57
2019-04-25T21:05:06.378Z,0.50
2019-04-25T21:07:34.681Z,0.60
2019-04-25T21:10:03.000Z,0.60
2019-04-25T21:12:32.023Z,0.80
2019-04-25T21:15:01.966Z,0.53
2019-04-25T21:17:32.195Z,0.87
2019-04-25T21:20:01.258Z,0.70
2019-04-25T21:22:29.679Z,0.80
2019-04-25T21:24:58.046Z,0.97
2019-04-25T21:27:26.441Z,0.60
2019-04-25T21:29:55.558Z,0.50
2019-04-25T21:32:24.649Z,0.53
2019-04-25T21:34:53.683Z,0.60
2019-04-25T21:37:22.083Z,0.63
2019-04-25T21:39:58.550Z,0.60
2019-04-25T21:42:32.911Z,0.70
2019-04-25T21:45:02.695Z,0.60
2019-04-25T21:47:31.323Z,0.60
2019-04-25T21:50:00.640Z,0.60
2019-04-25T21:52:29.510Z,0.50
2019-04-25T21:54:58.596Z,1.07
2019-04-25T21:57:28.360Z,0.73
2019-04-25T22:00:03.632Z,0.60
2019-04-25T22:02:27.707Z,0.83
2019-04-25T22:04:56.706Z,0.50
2019-04-25T22:07:25.522Z,0.63
2019-04-25T22:09:55.587Z,0.90
2019-04-25T22:12:25.343Z,1.07
2019-04-25T22:14:53.656Z,0.67
2019-04-25T22:17:22.074Z,0.60
2019-04-25T22:19:50.730Z,0.73
2019-04-25T22:22:22.177Z,0.80
2019-04-25T22:24:50.580Z,0.60
2019-04-25T22:27:20.777Z,0.80
2019-04-25T22:29:50.935Z,1.10
2019-04-25T22:32:20.851Z,0.70
2019-04-25T22:34:54.208Z,0.80
2019-04-25T22:37:22.536Z,0.80
2019-04-25T22:39:51.813Z,0.80
2019-04-25T22:42:20.128Z,0.63
2019-04-25T22:44:48.501Z,0.67
2019-04-25T22:47:17.710Z,0.70
2019-04-25T22:49:46.363Z,0.60
2019-04-25T22:52:15.057Z,0.90
2019-04-25T22:54:43.625Z,0.77
2019-04-25T22:57:12.719Z,0.80
2019-04-25T22:59:41.367Z,0.60
2019-04-25T23:02:14.579Z,0.70
2019-04-25T23:05:09.122Z,0.70
2019-04-25T23:07:31.712Z,0.67
2019-04-25T23:10:01.952Z,0.70
2019-04-25T23:12:31.032Z,0.60
2019-04-25T23:14:59.819Z,1.43
2019-04-25T23:17:28.197Z,1.17
2019-04-25T23:19:56.851Z,0.47
2019-04-25T23:22:25.151Z,0.57
2019-04-25T23:24:55.288Z,0.90
2019-04-25T23:27:25.251Z,0.70
2019-04-25T23:29:53.606Z,0.70
2019-04-25T23:32:22.642Z,0.80
2019-04-25T23:34:50.959Z,0.80
2019-04-25T23:37:19.312Z,1.00
2019-04-25T23:39:48.222Z,0.70
2019-04-25T23:42:16.624Z,0.80
2019-04-25T23:44:45.244Z,0.90
2019-04-25T23:47:14.373Z,1.00
2019-04-25T23:49:42.929Z,1.33
2019-04-25T23:52:11.383Z,1.10
2019-04-25T23:54:39.726Z,1.40
2019-04-25T23:57:09.387Z,1.10
2019-04-25T23:59:37.721Z,1.10
